Washington Boro, Pennsylvania
Current Conditions -  °F | °C
As of 5:53 PM on Monday 20 Oct 2014 (Local Time) from KLNS Reporting Station
Clear Clear  
Wind Chill: 13°   Ceiling: Unl
Heat Index: 13°   Visibility: 10mi
Dew Point:   Wind: 5mph
Humidity: 64%   Direction: 140°SE
Pressure: 29.95"   Gusts: NA
Location:  39.99°N, 76.47°W
Report Text: KLNS 202153Z 14004KT 10SM CLR 13/07 A2995 RMK AO2 SLP142 T01330067
Loading
Personal Weather Stations






























Interactive Weather Map
Tropical Storm Tracking
New forecast layout! Learn more

10-Day Weather Forecast

Advertisements
Track Severe Weather on mobile